Portada
METAR-TAF:

METAR-TAF

Aeropuertos :

Base Aérea de Sigonella

Sigonella, Italia

latitud: 37-24N, longitud: 014-55E, altitud: 22 m

Observación

El informe se hizo hace 54 minutos, a las 10:55 UTC
Viento 8 kt del norte
Temperatura 18°C
Humedad 42%
Presión 1010 hPa
Visibilidad 10 km o más
Escasas nubes a una altura de 3000 ft

METAR: LICZ 041055Z 36008KT 9999 FEW030 18/05 Q1010 RMK FEW VIS MIN 9999 WIND THR28 01009KT WIND THR10 34012KT A2985 BLU

Hora: 13:49 (11:49 UTC)

Pronóstico

El informe se hizo hace 49 minutos, a las 11:00 UTC
Pronóstico válido del 04 a las 12 UTC al 05 a las 12 UTC
Viento 10 kt del este
Visibilidad 10 km o más
Evolucionando progresivamente
del 04 a las 17 UTC al 04 a las 19 UTC
Viento 8 kt del oeste
Temporalmente
del 05 a las 00 UTC al 05 a las 06 UTC
Visibilidad: 5000 m
neblina

TAF: LICZ 041100Z 0412/0512 08010KT 9999 SCT20 BECMG 0417/0419 28008KT TEMPO 0500/0506 5000 BR

Observaciones y pronósticos meteorológicos de más de 4000 aeropuertos (mensajes METAR y TAF).

Los puntos amarillos y rojos representan las estaciones disponibles.

Ponga el ratón en el punto deseado para ver el nombre de la estación.

Haga clic para ver las observaciones y los pronósticos meteorológicos.

Para cambiar el mapa : haga clic en los botones verdes con una cruz de color negro para hacer un zoom, en el botón verde con un guión para alejar o en las flechas verdes para mapas adyacentes.


METAR-TAF: